Time;durP1;ratioP1;P1;durP2;ratioP2;P2;SDS_P1;SDS_P2;PMS_P1;PMS_P2;Temp;Humidity;BMP_temperature;BMP_pressure;BME280_temperature;BME280_humidity;BME280_pressure;Samples;Min_cycle;Max_cycle;Signal;HPM_P1;HPM_P2
2022/12/12 00:00:27;;;;;;;0.10;0.10;;;;;;;-6.43;100.00;98048.41;4975752;28;20242;-64
2022/12/12 00:02:56;;;;;;;0.10;0.10;;;;;;;-6.39;100.00;98040.63;4970454;28;20247;-64
2022/12/12 00:05:22;;;;;;;0.10;0.10;;;;;;;-6.43;100.00;98039.06;4968338;28;20936;-64
2022/12/12 00:07:49;;;;;;;0.03;0.03;;;;;;;-6.44;100.00;98042.50;4974467;28;20764;-64
2022/12/12 00:10:16;;;;;;;0.10;0.10;;;;;;;-6.44;100.00;98049.28;4976541;28;20237;-64
2022/12/12 00:12:42;;;;;;;0.10;0.10;;;;;;;-6.47;100.00;98044.31;4974131;28;21100;-64
2022/12/12 00:15:10;;;;;;;0.10;0.10;;;;;;;-6.51;100.00;98036.00;4974966;28;20724;-64
2022/12/12 00:17:36;;;;;;;0.10;0.10;;;;;;;-6.49;100.00;98039.31;4975056;28;20792;-64
2022/12/12 00:20:06;;;;;;;0.10;0.10;;;;;;;-6.52;100.00;98042.78;4973069;28;20241;-64
2022/12/12 00:22:33;;;;;;;0.10;0.10;;;;;;;-6.48;100.00;98040.13;4974423;28;20237;-64
2022/12/12 00:24:59;;;;;;;0.10;0.10;;;;;;;-6.49;100.00;98041.84;4972624;28;20226;-64
2022/12/12 00:27:26;;;;;;;0.10;0.10;;;;;;;-6.48;100.00;98037.59;4974205;28;20236;-64
2022/12/12 00:29:53;;;;;;;0.00;0.00;;;;;;;-6.52;100.00;98036.88;4961114;28;20249;-64
2022/12/12 00:32:20;;;;;;;0.00;0.00;;;;;;;-6.54;100.00;98036.94;4986328;28;20252;-64
2022/12/12 00:34:47;;;;;;;0.10;0.10;;;;;;;-6.55;100.00;98039.53;4941838;28;20237;-64
2022/12/12 00:37:14;;;;;;;0.10;0.10;;;;;;;-6.58;100.00;98035.38;4976318;28;20236;-63
2022/12/12 00:39:41;;;;;;;0.10;0.10;;;;;;;-6.54;100.00;98038.66;4976503;28;20353;-58
2022/12/12 00:42:08;;;;;;;0.10;0.10;;;;;;;-6.55;100.00;98044.63;4973662;28;20241;-65
2022/12/12 00:44:35;;;;;;;0.10;0.10;;;;;;;-6.54;100.00;98043.75;4972880;28;20268;-65
2022/12/12 00:47:02;;;;;;;0.10;0.10;;;;;;;-6.56;100.00;98041.25;4968101;28;20239;-65
2022/12/12 00:49:29;;;;;;;0.10;0.10;;;;;;;-6.53;100.00;98045.38;4974011;28;20248;-65
2022/12/12 00:51:55;;;;;;;0.10;0.10;;;;;;;-6.50;100.00;98049.50;4970085;28;20637;-65
2022/12/12 00:54:23;;;;;;;0.10;0.10;;;;;;;-6.49;100.00;98049.47;4975066;28;20238;-65
2022/12/12 00:56:50;;;;;;;0.10;0.10;;;;;;;-6.44;100.00;98047.59;4969453;28;20668;-65
2022/12/12 00:59:18;;;;;;;0.10;0.10;;;;;;;-6.39;100.00;98055.84;4972682;28;20272;-65
2022/12/12 01:01:46;;;;;;;0.10;0.10;;;;;;;-6.32;100.00;98050.50;4970322;28;20243;-65
2022/12/12 01:04:12;;;;;;;0.10;0.10;;;;;;;-6.24;100.00;98049.34;4961577;28;20325;-65
2022/12/12 01:06:39;;;;;;;0.10;0.10;;;;;;;-6.17;100.00;98051.66;4969574;28;20222;-65
2022/12/12 01:09:05;;;;;;;0.10;0.10;;;;;;;-6.06;100.00;98054.59;4978274;28;20233;-65
2022/12/12 01:11:33;;;;;;;0.10;0.10;;;;;;;-5.93;100.00;98049.81;4971772;28;20233;-68
2022/12/12 01:14:00;;;;;;;0.10;0.10;;;;;;;-5.79;100.00;98049.22;4967577;28;20230;-65
2022/12/12 01:16:27;;;;;;;0.10;0.10;;;;;;;-5.70;100.00;98053.13;4971353;28;20225;-65
2022/12/12 01:18:54;;;;;;;0.10;0.10;;;;;;;-5.63;100.00;98059.63;4969052;28;20226;-65
2022/12/12 01:21:21;;;;;;;0.10;0.10;;;;;;;-5.51;100.00;98065.91;4970726;28;20226;-65
2022/12/12 01:23:48;;;;;;;0.10;0.10;;;;;;;-5.45;100.00;98069.91;4965692;28;20916;-65
2022/12/12 01:26:17;;;;;;;0.10;0.10;;;;;;;-5.43;100.00;98070.69;4966680;28;20218;-65
2022/12/12 01:28:46;;;;;;;0.10;0.10;;;;;;;-5.40;100.00;98075.66;4947883;28;20233;-65
2022/12/12 01:31:14;;;;;;;0.10;0.10;;;;;;;-5.36;100.00;98083.06;4970039;28;20624;-65
2022/12/12 01:33:44;;;;;;;0.10;0.10;;;;;;;-5.29;100.00;98076.00;4970973;28;20755;-65
2022/12/12 01:36:15;;;;;;;0.10;0.10;;;;;;;-5.28;100.00;98082.72;4983308;28;20206;-65
2022/12/12 01:38:43;;;;;;;0.10;0.10;;;;;;;-5.24;100.00;98081.72;4976394;28;21375;-65
2022/12/12 01:41:10;;;;;;;0.10;0.10;;;;;;;-5.15;100.00;98083.06;4967296;28;20265;-65
2022/12/12 01:43:38;;;;;;;0.10;0.10;;;;;;;-5.11;100.00;98078.66;4971482;28;20230;-65
2022/12/12 01:46:36;;;;;;;0.00;0.00;;;;;;;-5.12;100.00;98082.09;4968642;28;20752;-65
2022/12/12 01:49:09;;;;;;;0.07;0.07;;;;;;;-5.10;100.00;98082.84;4967442;28;20235;-65
2022/12/12 01:51:38;;;;;;;0.00;0.00;;;;;;;-5.05;100.00;98088.56;4970433;28;20226;-65
2022/12/12 01:54:08;;;;;;;0.10;0.10;;;;;;;-5.00;100.00;98083.28;4969338;28;20305;-65
2022/12/12 01:56:37;;;;;;;0.10;0.10;;;;;;;-5.10;100.00;98095.56;4971103;28;20313;-65
2022/12/12 01:59:07;;;;;;;0.10;0.10;;;;;;;-5.13;100.00;98096.53;4965728;28;20292;-65
2022/12/12 02:01:35;;;;;;;0.10;0.10;;;;;;;-5.20;100.00;98092.59;4970364;28;20317;-65
2022/12/12 02:04:03;;;;;;;0.10;0.10;;;;;;;-5.23;100.00;98096.09;4968047;28;24032;-65
2022/12/12 02:06:30;;;;;;;0.10;0.10;;;;;;;-5.23;100.00;98097.81;4970758;28;20263;-65
2022/12/12 02:09:00;;;;;;;0.10;0.10;;;;;;;-5.22;100.00;98100.28;4963682;28;20722;-65
2022/12/12 02:11:28;;;;;;;0.10;0.10;;;;;;;-5.16;100.00;98094.13;4969625;28;20294;-65
2022/12/12 02:13:57;;;;;;;0.10;0.10;;;;;;;-5.14;100.00;98099.97;4967590;28;20749;-65
2022/12/12 02:16:36;;;;;;;0.10;0.10;;;;;;;-5.04;100.00;98095.31;4972434;28;20235;-62
2022/12/12 02:19:26;;;;;;;0.00;0.00;;;;;;;-4.98;100.00;98096.78;4967655;28;20241;-63
2022/12/12 02:22:00;;;;;;;0.10;0.10;;;;;;;-4.91;100.00;98093.06;4955518;28;20330;-63
2022/12/12 02:25:00;;;;;;;0.00;0.00;;;;;;;-4.81;100.00;98096.03;4960341;28;20245;-63
2022/12/12 02:28:08;;;;;;;0.10;0.10;;;;;;;-4.81;100.00;98091.78;4946408;28;20380;-65
2022/12/12 02:30:45;;;;;;;0.00;0.00;;;;;;;-4.72;100.00;98103.28;4967987;28;20234;-64
2022/12/12 02:33:34;;;;;;;0.00;0.00;;;;;;;-4.74;100.00;98098.22;4987701;28;20642;-64
2022/12/12 02:36:13;;;;;;;0.00;0.00;;;;;;;-4.75;100.00;98088.94;4966123;28;20243;-65
2022/12/12 02:38:51;;;;;;;0.03;0.03;;;;;;;-4.67;100.00;98098.78;4967942;28;20234;-65
2022/12/12 02:41:26;;;;;;;0.07;0.07;;;;;;;-4.62;100.00;98099.41;4965492;28;20242;-64
2022/12/12 02:44:01;;;;;;;0.10;0.10;;;;;;;-4.55;100.00;98099.97;4966216;28;20231;-64
2022/12/12 02:46:32;;;;;;;0.00;0.00;;;;;;;-4.50;100.00;98102.31;4970672;28;20280;-65
2022/12/12 02:49:04;;;;;;;0.10;0.10;;;;;;;-4.50;100.00;98102.31;4964331;28;20236;-64
2022/12/12 02:51:33;;;;;;;0.10;0.10;;;;;;;-4.54;100.00;98100.81;4969045;28;20302;-65
2022/12/12 02:54:00;;;;;;;0.00;0.00;;;;;;;-4.50;100.00;98099.78;4966439;28;20803;-65
2022/12/12 02:56:49;;;;;;;0.00;0.00;;;;;;;-4.57;100.00;98100.94;4974780;28;20271;-65
2022/12/12 02:59:21;;;;;;;0.10;0.10;;;;;;;-4.53;100.00;98100.72;4965335;28;20489;-65
2022/12/12 03:02:16;;;;;;;0.10;0.10;;;;;;;-4.49;100.00;98101.41;4986269;28;20233;-65
2022/12/12 03:07:57;;;;;;;0.10;0.10;;;;;;;-4.45;100.00;98096.09;4975976;28;20270;-65
2022/12/12 03:10:38;;;;;;;0.00;0.00;;;;;;;-4.46;100.00;98101.28;4972218;28;20245;-66
2022/12/12 03:13:12;;;;;;;0.07;0.07;;;;;;;-4.52;100.00;98099.81;4971106;28;20326;-65
2022/12/12 03:15:48;;;;;;;0.10;0.10;;;;;;;-4.53;100.00;98105.00;4980880;28;20578;-63
2022/12/12 03:18:26;;;;;;;0.00;0.00;;;;;;;-4.53;100.00;98098.16;4971726;28;20227;-66
2022/12/12 03:21:01;;;;;;;0.00;0.00;;;;;;;-4.52;100.00;98101.56;4971296;28;20228;-66
2022/12/12 03:23:33;;;;;;;0.10;0.10;;;;;;;-4.61;100.00;98095.97;4974392;28;20306;-65
2022/12/12 03:26:07;;;;;;;0.00;0.00;;;;;;;-4.63;100.00;98104.56;4974272;28;20277;-66
2022/12/12 03:28:38;;;;;;;0.07;0.07;;;;;;;-4.66;100.00;98102.16;4972431;28;20695;-65
2022/12/12 03:31:09;;;;;;;0.10;0.10;;;;;;;-4.71;100.00;98099.00;4972123;28;20238;-65
2022/12/12 03:33:41;;;;;;;0.00;0.00;;;;;;;-4.65;100.00;98093.63;4974458;28;20226;-66
2022/12/12 03:36:14;;;;;;;0.10;0.10;;;;;;;-4.64;100.00;98097.81;4968302;28;20620;-65
2022/12/12 03:38:44;;;;;;;0.03;0.03;;;;;;;-4.60;100.00;98096.78;4974456;28;20239;-66
2022/12/12 03:41:18;;;;;;;0.10;0.10;;;;;;;-4.59;100.00;98103.53;4971795;28;20239;-66
2022/12/12 03:43:50;;;;;;;0.10;0.10;;;;;;;-4.68;100.00;98102.25;4972822;28;20224;-64
2022/12/12 03:46:19;;;;;;;0.00;0.00;;;;;;;-4.71;100.00;98094.72;4976086;28;20231;-64
2022/12/12 03:48:52;;;;;;;0.00;0.00;;;;;;;-4.68;100.00;98099.69;4970928;28;20223;-65
2022/12/12 03:51:26;;;;;;;0.03;0.03;;;;;;;-4.66;100.00;98099.59;4971385;28;20226;-64
2022/12/12 03:53:58;;;;;;;0.07;0.07;;;;;;;-4.66;100.00;98095.34;4968714;28;20257;-64
2022/12/12 03:56:29;;;;;;;0.10;0.10;;;;;;;-4.71;100.00;98092.19;4973718;28;20238;-64
2022/12/12 03:59:01;;;;;;;0.10;0.10;;;;;;;-4.79;100.00;98095.09;4970047;28;20216;-64
2022/12/12 04:04:15;;;;;;;0.10;0.10;;;;;;;-4.94;100.00;98095.75;5662769;23;20690;-59
2022/12/12 04:06:49;;;;;;;0.10;0.10;;;;;;;-4.96;100.00;98095.81;4976088;28;20232;-59
2022/12/12 04:15:19;;;;;;;0.10;0.10;;;;;;;-5.07;100.00;98111.56;4967195;28;20237;-59
2022/12/12 04:17:57;;;;;;;0.00;0.00;;;;;;;-5.07;100.00;98103.06;4964903;28;20226;-59
2022/12/12 04:23:23;;;;;;;0.10;0.10;;;;;;;-5.08;100.00;98109.06;4957984;28;20231;-59
2022/12/12 04:28:54;;;;;;;0.10;0.10;;;;;;;-5.20;100.00;98106.13;4961560;28;20226;-59
2022/12/12 04:31:25;;;;;;;0.10;0.10;;;;;;;-5.16;100.00;98106.84;5217015;23;20229;-61
2022/12/12 04:34:01;;;;;;;0.10;0.10;;;;;;;-5.12;100.00;98110.06;5001506;28;20260;-60
2022/12/12 04:36:29;;;;;;;0.10;0.10;;;;;;;-5.20;100.00;98123.13;5008686;28;20229;-60
2022/12/12 04:38:58;;;;;;;0.10;0.10;;;;;;;-5.21;100.00;98126.56;5004768;28;20233;-59
2022/12/12 04:41:27;;;;;;;0.10;0.10;;;;;;;-5.20;100.00;98130.78;5000940;28;20970;-59
2022/12/12 04:43:56;;;;;;;0.10;0.10;;;;;;;-5.20;100.00;98121.41;4985354;28;20721;-60
2022/12/12 04:46:26;;;;;;;0.10;0.10;;;;;;;-5.15;100.00;98123.78;4990815;28;20286;-59
2022/12/12 04:48:55;;;;;;;0.00;0.00;;;;;;;-5.19;100.00;98123.06;4985880;28;20570;-59
2022/12/12 04:51:26;;;;;;;0.07;0.07;;;;;;;-5.13;100.00;98122.00;4989227;28;20792;-59
2022/12/12 04:53:58;;;;;;;0.10;0.10;;;;;;;-5.13;100.00;98129.63;4985318;28;20988;-59
2022/12/12 04:56:30;;;;;;;0.10;0.10;;;;;;;-5.11;100.00;98137.19;4986698;28;20235;-59
2022/12/12 04:58:58;;;;;;;0.00;0.00;;;;;;;-5.12;100.00;98133.81;4986339;28;20285;-59
2022/12/12 05:01:32;;;;;;;0.10;0.10;;;;;;;-5.05;100.00;98135.22;4988431;28;20242;-58
2022/12/12 05:04:03;;;;;;;0.10;0.10;;;;;;;-5.04;100.00;98138.56;4983123;28;20817;-60
2022/12/12 05:06:36;;;;;;;0.10;0.10;;;;;;;-5.01;100.00;98135.91;4988311;28;20288;-58
2022/12/12 05:09:03;;;;;;;0.10;0.10;;;;;;;-5.01;100.00;98138.44;4985734;28;20237;-59
2022/12/12 05:11:33;;;;;;;0.00;0.00;;;;;;;-4.97;100.00;98139.16;4988678;28;20289;-60
2022/12/12 05:14:00;;;;;;;0.10;0.10;;;;;;;-5.05;100.00;98137.75;4985978;28;20338;-59
2022/12/12 05:16:31;;;;;;;0.10;0.10;;;;;;;-5.00;100.00;98137.56;4987662;28;20664;-64
2022/12/12 05:18:58;;;;;;;0.10;0.10;;;;;;;-5.02;100.00;98141.88;4984661;28;20293;-59
2022/12/12 05:21:24;;;;;;;0.10;0.10;;;;;;;-5.07;100.00;98134.47;4987743;28;20582;-59
2022/12/12 05:23:51;;;;;;;0.10;0.10;;;;;;;-5.06;100.00;98135.25;4985317;28;20284;-59
2022/12/12 05:26:22;;;;;;;0.10;0.10;;;;;;;-5.04;100.00;98138.56;4987134;28;20255;-59
2022/12/12 05:28:50;;;;;;;0.10;0.10;;;;;;;-5.11;100.00;98137.19;4978510;28;20332;-59
2022/12/12 05:31:17;;;;;;;0.10;0.10;;;;;;;-5.13;100.00;98134.72;4987276;28;20628;-60
2022/12/12 05:33:43;;;;;;;0.10;0.10;;;;;;;-5.19;100.00;98140.06;4988357;28;20241;-59
2022/12/12 05:36:10;;;;;;;0.10;0.10;;;;;;;-5.20;100.00;98149.41;4991220;28;20238;-59
2022/12/12 05:38:37;;;;;;;0.10;0.10;;;;;;;-5.30;100.00;98150.69;4987724;28;20242;-59
2022/12/12 05:41:04;;;;;;;0.10;0.10;;;;;;;-5.40;100.00;98149.41;4985163;28;20309;-59
2022/12/12 05:43:31;;;;;;;0.10;0.10;;;;;;;-5.41;100.00;98143.47;4986435;28;20348;-58
2022/12/12 05:45:59;;;;;;;0.10;0.10;;;;;;;-5.46;100.00;98152.19;4987681;28;20242;-59
2022/12/12 05:48:26;;;;;;;0.10;0.10;;;;;;;-5.47;100.00;98150.53;5003578;28;20746;-59
2022/12/12 05:50:53;;;;;;;0.10;0.10;;;;;;;-5.58;100.00;98143.34;4984701;28;20858;-59
2022/12/12 05:53:20;;;;;;;0.00;0.00;;;;;;;-5.76;100.00;98139.81;4988089;28;20655;-60
2022/12/12 05:55:50;;;;;;;0.10;0.10;;;;;;;-5.98;100.00;98146.56;4985107;28;20713;-60
2022/12/12 05:58:16;;;;;;;0.10;0.10;;;;;;;-6.19;100.00;98142.34;4984389;28;20316;-60
2022/12/12 06:00:43;;;;;;;0.10;0.10;;;;;;;-6.32;100.00;98152.94;4986136;28;20228;-60
2022/12/12 06:03:11;;;;;;;0.10;0.10;;;;;;;-6.50;100.00;98154.47;4987039;28;20723;-59
2022/12/12 06:05:37;;;;;;;0.10;0.10;;;;;;;-6.55;100.00;98156.34;4986276;28;20606;-59
2022/12/12 06:08:04;;;;;;;0.10;0.10;;;;;;;-6.65;100.00;98167.69;4983115;28;20620;-59
2022/12/12 06:10:30;;;;;;;0.10;0.10;;;;;;;-6.77;100.00;98169.78;4986776;28;20624;-60
2022/12/12 06:12:57;;;;;;;0.10;0.10;;;;;;;-6.82;100.00;98157.25;4984773;28;20301;-58
2022/12/12 06:15:26;;;;;;;0.10;0.10;;;;;;;-6.89;100.00;98155.78;4988113;28;20235;-59
2022/12/12 06:17:57;;;;;;;0.10;0.10;;;;;;;-6.91;100.00;98159.28;4987104;28;20241;-59
2022/12/12 06:20:25;;;;;;;0.10;0.10;;;;;;;-7.01;100.00;98148.63;4989176;28;20225;-60
2022/12/12 06:22:51;;;;;;;0.10;0.10;;;;;;;-7.08;100.00;98155.59;4984058;28;20257;-59
2022/12/12 06:25:19;;;;;;;0.10;0.10;;;;;;;-7.09;100.00;98159.03;4986197;28;20679;-59
2022/12/12 06:27:45;;;;;;;0.10;0.10;;;;;;;-7.15;100.00;98162.59;4985291;28;20240;-59
2022/12/12 06:30:13;;;;;;;0.10;0.10;;;;;;;-7.21;100.00;98170.41;4989341;28;20291;-60
2022/12/12 06:32:39;;;;;;;0.10;0.10;;;;;;;-7.21;100.00;98167.88;4984906;28;20253;-60
2022/12/12 06:35:06;;;;;;;0.10;0.10;;;;;;;-7.20;100.00;98169.53;4981925;28;20237;-59
2022/12/12 06:37:34;;;;;;;0.10;0.10;;;;;;;-7.15;100.00;98172.75;4985813;28;20232;-59
2022/12/12 06:40:01;;;;;;;0.10;0.10;;;;;;;-7.07;100.00;98179.28;4984944;28;20236;-60
2022/12/12 06:42:28;;;;;;;0.10;0.10;;;;;;;-7.03;100.00;98174.03;4986876;28;20241;-60
2022/12/12 06:44:54;;;;;;;0.10;0.10;;;;;;;-6.94;100.00;98170.38;4985469;28;20656;-60
2022/12/12 06:47:21;;;;;;;0.10;0.10;;;;;;;-6.90;100.00;98176.16;4987692;28;20678;-59
2022/12/12 06:49:47;;;;;;;0.10;0.10;;;;;;;-6.85;100.00;98174.28;4984169;28;20284;-60
2022/12/12 06:52:14;;;;;;;0.10;0.10;;;;;;;-6.86;100.00;98167.56;4986944;28;20244;-59
2022/12/12 06:54:42;;;;;;;0.07;0.07;;;;;;;-6.89;100.00;98173.56;4984685;28;20236;-60
2022/12/12 06:57:08;;;;;;;0.00;0.00;;;;;;;-6.91;100.00;98171.97;4983061;28;20238;-61
2022/12/12 06:59:35;;;;;;;0.10;0.10;;;;;;;-6.98;100.00;98168.81;4987413;28;20283;-59
2022/12/12 07:02:01;;;;;;;0.10;0.10;;;;;;;-6.99;100.00;98173.06;4982767;28;20689;-60
2022/12/12 07:04:28;;;;;;;0.10;0.10;;;;;;;-6.95;100.00;98173.78;4985317;28;20241;-60
2022/12/12 07:06:55;;;;;;;0.10;0.10;;;;;;;-7.03;100.00;98181.66;4982889;28;20728;-60
2022/12/12 07:09:21;;;;;;;0.10;0.10;;;;;;;-7.05;100.00;98177.53;4985127;28;20229;-60
2022/12/12 07:11:49;;;;;;;0.10;0.10;;;;;;;-7.14;100.00;98183.72;4979752;28;20245;-59
2022/12/12 07:14:16;;;;;;;0.10;0.10;;;;;;;-7.11;100.00;98186.16;4979989;28;20260;-60
2022/12/12 07:16:42;;;;;;;0.10;0.10;;;;;;;-7.09;100.00;98186.94;4988956;28;20228;-60
2022/12/12 07:19:09;;;;;;;0.10;0.10;;;;;;;-7.02;100.00;98192.66;4981931;28;20345;-60
2022/12/12 07:21:36;;;;;;;0.10;0.10;;;;;;;-7.00;100.00;98194.22;4979602;28;20230;-60
2022/12/12 07:24:03;;;;;;;0.10;0.10;;;;;;;-6.93;100.00;98188.97;4983473;28;21719;-60
2022/12/12 07:26:30;;;;;;;0.10;0.10;;;;;;;-6.90;100.00;98192.22;4987849;28;20234;-60
2022/12/12 07:28:58;;;;;;;0.10;0.10;;;;;;;-6.85;100.00;98182.72;4976451;28;20228;-59
2022/12/12 07:31:25;;;;;;;0.10;0.10;;;;;;;-6.81;100.00;98186.00;4999878;28;20248;-59
2022/12/12 07:33:53;;;;;;;0.10;0.10;;;;;;;-6.69;100.00;98187.28;4983550;28;20237;-60
2022/12/12 07:36:21;;;;;;;0.10;0.10;;;;;;;-6.59;100.00;98191.16;4986927;28;20239;-60
2022/12/12 07:38:48;;;;;;;0.10;0.10;;;;;;;-6.47;100.00;98187.38;4984573;28;20625;-61
2022/12/12 07:41:16;;;;;;;0.10;0.10;;;;;;;-6.29;100.00;98190.94;4986568;28;20226;-61
2022/12/12 07:43:48;;;;;;;0.10;0.10;;;;;;;-6.14;100.00;98192.06;4983232;28;20235;-60
2022/12/12 07:46:18;;;;;;;0.10;0.10;;;;;;;-6.03;100.00;98189.16;4987553;28;20237;-60
2022/12/12 07:48:45;;;;;;;0.10;0.10;;;;;;;-5.95;100.00;98199.81;4982573;28;20229;-59
2022/12/12 07:51:12;;;;;;;0.10;0.10;;;;;;;-5.81;100.00;98204.38;4986965;28;20581;-60
2022/12/12 07:53:38;;;;;;;0.10;0.10;;;;;;;-5.83;100.00;98206.16;4985666;28;20230;-60
2022/12/12 07:56:06;;;;;;;0.10;0.10;;;;;;;-5.75;100.00;98207.56;4984168;28;20226;-59
2022/12/12 07:58:33;;;;;;;0.10;0.10;;;;;;;-5.69;100.00;98207.34;4985447;28;20977;-60
2022/12/12 08:01:00;;;;;;;0.10;0.10;;;;;;;-5.56;100.00;98215.31;4984189;28;20234;-60
2022/12/12 08:03:28;;;;;;;0.10;0.10;;;;;;;-5.42;100.00;98220.69;4988833;28;20275;-60
2022/12/12 08:05:54;;;;;;;0.10;0.10;;;;;;;-5.23;100.00;98223.31;4984868;28;20289;-60
2022/12/12 08:08:21;;;;;;;0.10;0.10;;;;;;;-5.11;100.00;98221.16;4989396;28;20288;-60
2022/12/12 08:10:47;;;;;;;0.10;0.10;;;;;;;-5.10;100.00;98226.19;4985159;28;20238;-60
2022/12/12 08:13:14;;;;;;;0.10;0.10;;;;;;;-5.16;100.00;98223.06;4986642;28;20288;-60
2022/12/12 08:15:42;;;;;;;0.10;0.10;;;;;;;-5.22;100.00;98226.69;4990026;28;20240;-60
2022/12/12 08:18:09;;;;;;;0.10;0.10;;;;;;;-5.09;100.00;98227.88;4987023;28;20321;-59
2022/12/12 08:20:39;;;;;;;0.10;0.10;;;;;;;-5.03;100.00;98229.31;4989068;28;20233;-60
2022/12/12 08:23:05;;;;;;;0.10;0.10;;;;;;;-4.94;100.00;98236.56;4985864;28;20230;-60
2022/12/12 08:25:32;;;;;;;0.10;0.10;;;;;;;-4.97;100.00;98234.16;4988270;28;20234;-60
2022/12/12 08:27:59;;;;;;;0.03;0.03;;;;;;;-4.97;100.00;98238.44;4987227;28;20309;-59
2022/12/12 08:30:25;;;;;;;0.10;0.10;;;;;;;-4.82;100.00;98240.34;4989411;28;20302;-60
2022/12/12 08:32:52;;;;;;;0.10;0.10;;;;;;;-4.78;100.00;98248.69;4985633;28;20234;-60
2022/12/12 08:35:19;;;;;;;0.10;0.10;;;;;;;-4.97;100.00;98253.72;4991713;28;20239;-60
2022/12/12 08:37:48;;;;;;;0.00;0.00;;;;;;;-4.91;100.00;98253.47;4985546;28;20238;-60
2022/12/12 08:40:15;;;;;;;0.10;0.10;;;;;;;-4.79;100.00;98255.50;4987502;28;20265;-60
2022/12/12 08:42:41;;;;;;;0.10;0.10;;;;;;;-4.71;100.00;98252.63;4990583;28;20288;-61
2022/12/12 08:45:08;;;;;;;0.10;0.10;;;;;;;-4.64;100.00;98250.63;4985530;28;20628;-60
2022/12/12 08:47:35;;;;;;;0.10;0.10;;;;;;;-4.54;100.00;98249.34;4989322;28;20281;-60
2022/12/12 08:50:02;;;;;;;0.00;0.00;;;;;;;-4.58;99.94;98255.47;4983520;28;20238;-61
2022/12/12 08:52:28;;;;;;;0.07;0.07;;;;;;;-4.62;100.00;98256.50;4990482;28;20245;-60
2022/12/12 08:54:56;;;;;;;0.00;0.00;;;;;;;-4.50;99.95;98258.53;4984032;28;20249;-59
2022/12/12 08:57:23;;;;;;;0.00;0.00;;;;;;;-4.45;99.54;98266.00;4986829;28;20230;-60
2022/12/12 08:59:50;;;;;;;0.10;0.10;;;;;;;-4.50;98.50;98265.34;4985362;28;20248;-60
2022/12/12 09:02:16;;;;;;;0.00;0.00;;;;;;;-4.35;99.03;98269.81;4987539;28;20678;-60
2022/12/12 09:04:43;;;;;;;0.10;0.10;;;;;;;-4.24;98.20;98269.31;4987368;28;20222;-61
2022/12/12 09:07:09;;;;;;;0.10;0.10;;;;;;;-4.24;96.29;98269.31;4987039;28;20221;-60
2022/12/12 09:09:36;;;;;;;0.00;0.00;;;;;;;-4.09;97.67;98275.47;4988166;28;20237;-61
2022/12/12 09:12:04;;;;;;;0.00;0.00;;;;;;;-3.93;96.49;98279.88;4981882;28;20230;-60
2022/12/12 09:14:31;;;;;;;0.10;0.10;;;;;;;-3.96;94.71;98280.88;4989028;28;20262;-61
2022/12/12 09:16:58;;;;;;;0.10;0.10;;;;;;;-3.96;95.22;98282.56;4984869;28;20223;-60
2022/12/12 09:19:24;;;;;;;0.00;0.00;;;;;;;-4.10;95.65;98284.00;4989112;28;20230;-60
2022/12/12 09:21:51;;;;;;;0.10;0.10;;;;;;;-3.94;95.01;98278.22;4987367;28;20235;-60
2022/12/12 09:24:18;;;;;;;0.10;0.10;;;;;;;-3.97;96.37;98280.91;4988991;28;20623;-60
2022/12/12 09:26:45;;;;;;;0.10;0.10;;;;;;;-4.07;97.18;98277.97;4986330;28;20251;-59
2022/12/12 09:29:12;;;;;;;0.00;0.00;;;;;;;-4.08;97.71;98283.94;4989879;28;20220;-61
2022/12/12 09:31:40;;;;;;;0.10;0.10;;;;;;;-3.88;96.93;98294.09;4989264;28;20316;-60
2022/12/12 09:34:06;;;;;;;0.00;0.00;;;;;;;-3.60;96.13;98294.59;4984397;28;20237;-61
2022/12/12 09:36:33;;;;;;;0.00;0.00;;;;;;;-3.46;94.92;98299.03;4989339;28;20221;-60
2022/12/12 09:38:59;;;;;;;0.00;0.00;;;;;;;-3.38;94.17;98301.25;4987646;28;20238;-61
2022/12/12 09:41:29;;;;;;;0.10;0.10;;;;;;;-3.27;92.60;98296.47;4987072;28;20253;-61
2022/12/12 09:43:59;;;;;;;0.10;0.10;;;;;;;-3.26;91.55;98296.41;4983724;28;20236;-61
2022/12/12 09:46:36;;;;;;;0.00;0.00;;;;;;;-3.20;91.82;98292.75;4986197;28;20238;-60
2022/12/12 09:49:13;;;;;;;0.00;0.00;;;;;;;-3.34;90.88;98301.03;4983478;28;20248;-60
2022/12/12 09:51:41;;;;;;;0.10;0.10;;;;;;;-3.35;91.71;98296.00;4987690;28;20240;-60
2022/12/12 09:54:13;;;;;;;0.10;0.10;;;;;;;-3.18;93.89;98293.47;4985079;28;20698;-60
2022/12/12 09:56:48;;;;;;;0.00;0.00;;;;;;;-3.13;92.05;98293.25;4988264;28;20776;-61
2022/12/12 09:59:18;;;;;;;0.00;0.00;;;;;;;-3.22;90.92;98288.59;4984940;28;20225;-60
2022/12/12 10:01:57;;;;;;;0.00;0.00;;;;;;;-3.02;91.10;98280.81;4977676;28;20593;-61
2022/12/12 10:04:33;;;;;;;0.10;0.10;;;;;;;-3.07;90.02;98279.38;4985090;28;20230;-61
2022/12/12 10:07:07;;;;;;;0.00;0.00;;;;;;;-3.26;89.28;98283.63;4980881;28;20281;-60
2022/12/12 10:09:59;;;;;;;0.00;0.00;;;;;;;-3.41;89.06;98277.53;4987659;28;20219;-61
2022/12/12 10:12:27;;;;;;;0.00;0.00;;;;;;;-3.25;89.64;98284.47;4984668;28;20260;-62
2022/12/12 10:14:57;;;;;;;0.00;0.00;;;;;;;-3.42;91.30;98280.97;4983520;28;20236;-61
2022/12/12 10:17:29;;;;;;;0.07;0.07;;;;;;;-3.02;91.21;98277.41;4986420;28;20226;-62
2022/12/12 10:19:59;;;;;;;0.00;0.00;;;;;;;-2.98;91.23;98273.81;4982155;28;20237;-62
2022/12/12 10:22:35;;;;;;;0.00;0.00;;;;;;;-2.87;89.72;98274.13;4984954;28;20242;-61
2022/12/12 10:25:08;;;;;;;0.00;0.00;;;;;;;-2.76;87.48;98273.63;4982190;28;20295;-61
2022/12/12 10:27:35;;;;;;;0.00;0.00;;;;;;;-2.92;88.54;98267.59;4986293;28;20230;-61
2022/12/12 10:30:14;;;;;;;0.00;0.00;;;;;;;-2.71;88.60;98265.72;4979065;28;20234;-60
2022/12/12 10:32:54;;;;;;;0.00;0.00;;;;;;;-2.53;88.83;98266.50;5010831;23;20222;-57
2022/12/12 10:35:27;;;;;;;0.00;0.00;;;;;;;-2.47;87.83;98263.66;5002820;28;20227;-57
2022/12/12 10:38:06;;;;;;;0.00;0.00;;;;;;;-2.41;88.18;98270.19;5001962;28;20294;-57
2022/12/12 10:40:44;;;;;;;0.00;0.00;;;;;;;-2.38;86.53;98268.28;5004090;28;20222;-57
2022/12/12 10:43:17;;;;;;;0.00;0.00;;;;;;;-2.31;86.47;98268.84;4974150;28;20590;-57
2022/12/12 10:45:56;;;;;;;0.00;0.00;;;;;;;-2.23;86.61;98261.59;4975082;28;20219;-58
2022/12/12 10:48:24;;;;;;;0.10;0.10;;;;;;;-2.06;84.91;98267.53;4976010;28;20734;-57
2022/12/12 10:50:54;;;;;;;0.00;0.00;;;;;;;-2.10;84.84;98268.59;4978735;28;20635;-57
2022/12/12 10:53:21;;;;;;;0.00;0.00;;;;;;;-2.15;85.58;98270.59;4978170;28;20259;-58
2022/12/12 10:55:52;;;;;;;0.00;0.00;;;;;;;-2.13;86.12;98266.22;4974744;28;20224;-57
2022/12/12 10:58:19;;;;;;;0.00;0.00;;;;;;;-2.27;86.09;98265.22;4976700;28;20230;-58
2022/12/12 11:00:49;;;;;;;0.07;0.07;;;;;;;-2.36;86.74;98263.13;4973474;28;20239;-57
2022/12/12 11:03:25;;;;;;;0.00;0.00;;;;;;;-2.34;86.62;98263.88;4974576;28;20234;-58
2022/12/12 11:05:53;;;;;;;0.00;0.00;;;;;;;-2.46;86.45;98260.19;4973336;28;20226;-56
2022/12/12 11:08:25;;;;;;;0.00;0.00;;;;;;;-2.54;87.63;98254.63;4979872;28;20229;-58
2022/12/12 11:11:06;;;;;;;0.00;0.00;;;;;;;-2.73;89.42;98250.47;4974751;28;20222;-59
2022/12/12 11:13:43;;;;;;;0.10;0.10;;;;;;;-2.67;92.44;98246.78;4977528;28;20243;-54
2022/12/12 11:16:15;;;;;;;0.07;0.07;;;;;;;-2.53;92.50;98243.50;4973461;28;20277;-55
2022/12/12 11:18:56;;;;;;;0.00;0.00;;;;;;;-2.51;91.67;98246.81;4978762;28;20225;-54
2022/12/12 11:21:23;;;;;;;0.00;0.00;;;;;;;-2.64;90.43;98245.78;4973783;28;20233;-57
2022/12/12 11:23:54;;;;;;;0.00;0.00;;;;;;;-2.89;92.37;98247.03;4971420;28;20236;-55
2022/12/12 11:26:22;;;;;;;0.10;0.10;;;;;;;-2.78;91.85;98243.94;4977467;28;20237;-56
2022/12/12 11:28:53;;;;;;;0.00;0.00;;;;;;;-2.99;92.77;98238.97;4973520;28;20221;-56
2022/12/12 11:31:23;;;;;;;0.00;0.00;;;;;;;-3.01;92.20;98230.56;4975891;28;20281;-56
2022/12/12 11:33:54;;;;;;;0.03;0.03;;;;;;;-3.08;93.29;98227.50;4972348;28;20615;-56
2022/12/12 11:36:23;;;;;;;0.00;0.00;;;;;;;-3.07;93.21;98226.59;4977101;28;20223;-56
2022/12/12 11:38:54;;;;;;;0.00;0.00;;;;;;;-3.11;92.94;98230.19;4973351;28;20286;-56
2022/12/12 11:41:21;;;;;;;0.00;0.00;;;;;;;-3.01;92.99;98233.94;4978603;28;20290;-54
2022/12/12 11:43:58;;;;;;;0.10;0.10;;;;;;;-3.02;92.88;98237.41;4972714;28;20703;-54
2022/12/12 11:46:27;;;;;;;0.10;0.10;;;;;;;-2.95;92.81;98237.91;4976466;28;20237;-56
2022/12/12 11:49:01;;;;;;;0.00;0.00;;;;;;;-2.87;92.78;98240.13;4975882;28;20226;-56
2022/12/12 11:51:37;;;;;;;0.00;0.00;;;;;;;-2.86;93.49;98239.22;4977360;28;20283;-56
2022/12/12 11:54:10;;;;;;;0.00;0.00;;;;;;;-2.77;91.83;98231.09;4974048;28;21989;-57
2022/12/12 11:56:43;;;;;;;0.00;0.00;;;;;;;-2.71;92.61;98227.38;4973958;28;20234;-56